createdAt,value
2019-06-26T00:00:12.001Z,7.83
2019-06-26T00:02:42.598Z,8.00
2019-06-26T00:05:12.837Z,10.13
2019-06-26T00:07:43.351Z,10.25
2019-06-26T00:10:14.634Z,11.20
2019-06-26T00:12:44.925Z,9.35
2019-06-26T00:15:16.102Z,14.00
2019-06-26T00:17:46.478Z,13.62
2019-06-26T00:20:16.709Z,13.85
2019-06-26T00:22:46.859Z,13.62
2019-06-26T00:25:16.977Z,13.28
2019-06-26T00:27:47.116Z,13.32
2019-06-26T00:30:17.849Z,12.55
2019-06-26T00:32:47.986Z,11.38
2019-06-26T00:35:18.604Z,11.78
2019-06-26T00:37:48.894Z,10.03
2019-06-26T00:40:19.245Z,10.82
2019-06-26T00:42:49.432Z,9.55
2019-06-26T00:45:19.576Z,9.43
2019-06-26T00:47:49.664Z,9.58
2019-06-26T00:50:19.842Z,9.15
2019-06-26T00:52:49.984Z,8.90
2019-06-26T00:55:20.001Z,8.85
2019-06-26T00:57:50.876Z,8.48
2019-06-26T01:00:26.836Z,8.85
2019-06-26T01:02:57.267Z,8.48
2019-06-26T01:05:28.406Z,9.10
2019-06-26T01:07:58.432Z,8.38
2019-06-26T01:10:28.484Z,8.75
2019-06-26T01:12:58.656Z,8.53
2019-06-26T01:15:28.955Z,8.45
2019-06-26T01:18:00.127Z,8.28
2019-06-26T01:20:30.494Z,7.97
2019-06-26T01:23:02.155Z,8.18
2019-06-26T01:25:32.346Z,8.00
2019-06-26T01:28:02.656Z,7.97
2019-06-26T01:30:33.722Z,8.18
2019-06-26T01:33:03.870Z,7.90
2019-06-26T01:35:33.983Z,7.75
2019-06-26T01:38:04.361Z,7.92
2019-06-26T01:40:34.480Z,8.20
2019-06-26T01:43:04.508Z,7.67
2019-06-26T01:45:34.609Z,7.70
2019-06-26T01:48:04.875Z,6.75
2019-06-26T01:50:34.986Z,6.62
2019-06-26T01:53:05.336Z,6.47
2019-06-26T01:55:35.403Z,6.62
2019-06-26T01:58:05.779Z,7.08
2019-06-26T02:00:35.892Z,7.42
2019-06-26T02:03:05.944Z,6.70
2019-06-26T02:05:36.386Z,6.58
2019-06-26T02:08:06.451Z,7.05
2019-06-26T02:10:36.962Z,6.58
2019-06-26T02:13:07.090Z,7.08
2019-06-26T02:15:37.174Z,6.95
2019-06-26T02:18:27.624Z,6.78
2019-06-26T02:20:57.742Z,7.17
2019-06-26T02:23:27.839Z,7.15
2019-06-26T02:25:57.958Z,7.28
2019-06-26T02:28:27.995Z,6.95
2019-06-26T02:30:58.599Z,7.12
2019-06-26T02:33:28.699Z,6.83
2019-06-26T02:35:58.820Z,6.95
2019-06-26T02:38:28.858Z,6.78
2019-06-26T02:40:58.854Z,7.10
2019-06-26T02:43:29.503Z,7.70
2019-06-26T02:45:59.630Z,7.55
2019-06-26T02:48:30.381Z,7.60
2019-06-26T02:51:00.617Z,8.00
2019-06-26T02:53:31.708Z,7.33
2019-06-26T02:56:01.757Z,7.72
2019-06-26T02:58:31.840Z,7.78
2019-06-26T03:01:02.683Z,8.33
2019-06-26T03:03:33.116Z,8.30
2019-06-26T03:06:03.239Z,9.08
2019-06-26T03:08:35.160Z,9.15
2019-06-26T03:11:05.308Z,9.13
2019-06-26T03:13:35.296Z,9.10
2019-06-26T03:16:05.413Z,9.80
2019-06-26T03:18:35.447Z,9.93
2019-06-26T03:21:05.673Z,8.80
2019-06-26T03:23:35.927Z,9.15
2019-06-26T03:26:12.264Z,9.33
2019-06-26T03:28:42.619Z,9.45
2019-06-26T03:31:12.193Z,9.15
2019-06-26T03:33:42.180Z,9.25
2019-06-26T03:36:12.218Z,8.93
2019-06-26T03:38:42.226Z,8.53
2019-06-26T03:41:12.587Z,8.83
2019-06-26T03:43:42.667Z,9.60
2019-06-26T03:46:12.659Z,9.35
2019-06-26T03:48:43.992Z,9.10
2019-06-26T03:51:14.300Z,9.30
2019-06-26T03:53:44.390Z,9.13
2019-06-26T03:56:14.524Z,9.53
2019-06-26T03:58:44.962Z,8.70
2019-06-26T04:01:15.053Z,9.48
2019-06-26T04:03:45.408Z,8.95
2019-06-26T04:06:15.536Z,9.43
2019-06-26T04:08:45.948Z,9.35
2019-06-26T04:11:16.946Z,8.93
2019-06-26T04:13:47.471Z,9.68
2019-06-26T04:16:17.583Z,9.03
2019-06-26T04:18:47.825Z,9.38
2019-06-26T04:21:17.835Z,9.25
2019-06-26T04:23:48.006Z,8.70
2019-06-26T04:26:18.404Z,8.83
2019-06-26T04:28:47.886Z,9.00
2019-06-26T04:31:17.850Z,9.25
2019-06-26T04:33:48.407Z,9.20
2019-06-26T04:36:18.650Z,8.83
2019-06-26T04:38:49.295Z,9.05
2019-06-26T04:41:19.468Z,8.43
2019-06-26T04:43:51.116Z,9.18
2019-06-26T04:46:21.208Z,9.18
2019-06-26T04:48:51.456Z,8.23
2019-06-26T04:51:21.700Z,8.73
2019-06-26T04:53:55.659Z,8.33
2019-06-26T04:56:24.509Z,8.15
2019-06-26T04:58:55.100Z,7.90
2019-06-26T05:01:25.509Z,7.83
2019-06-26T05:03:55.930Z,7.95
2019-06-26T05:06:33.245Z,9.20
2019-06-26T05:09:06.299Z,8.98
2019-06-26T05:11:38.832Z,8.98
2019-06-26T05:14:12.536Z,9.03
2019-06-26T05:16:44.798Z,9.25
2019-06-26T05:19:15.816Z,8.10
2019-06-26T05:21:46.455Z,7.78
2019-06-26T05:24:17.012Z,8.10
2019-06-26T05:26:47.169Z,7.62
2019-06-26T05:29:17.442Z,7.53
2019-06-26T05:31:47.821Z,7.47
2019-06-26T05:34:17.948Z,7.10
2019-06-26T05:36:48.164Z,6.53
2019-06-26T05:39:18.277Z,7.00
2019-06-26T05:41:49.219Z,6.78
2019-06-26T05:44:19.573Z,6.37
2019-06-26T05:46:49.922Z,6.20
2019-06-26T05:49:20.657Z,6.40
2019-06-26T05:51:50.843Z,6.42
2019-06-26T05:54:22.556Z,6.33
2019-06-26T05:56:52.653Z,6.33
2019-06-26T05:59:23.130Z,7.05
2019-06-26T06:01:54.206Z,5.97
2019-06-26T06:04:24.755Z,6.67
2019-06-26T06:06:55.158Z,5.92
2019-06-26T06:09:25.662Z,6.37
2019-06-26T06:11:55.764Z,5.95
2019-06-26T06:14:26.275Z,5.80
2019-06-26T06:16:57.457Z,5.80
2019-06-26T06:19:27.720Z,5.90
2019-06-26T06:21:59.481Z,5.67
2019-06-26T06:24:29.755Z,6.10
2019-06-26T06:27:00.134Z,5.80
2019-06-26T06:29:32.273Z,5.92
2019-06-26T06:32:02.584Z,5.50
2019-06-26T06:34:33.043Z,5.92
2019-06-26T06:37:04.477Z,6.05
2019-06-26T06:39:34.639Z,6.10
2019-06-26T06:42:04.934Z,5.95
2019-06-26T06:44:35.739Z,6.05
2019-06-26T06:47:08.918Z,6.33
2019-06-26T06:49:38.423Z,5.60
2019-06-26T06:52:09.214Z,5.72
2019-06-26T06:54:40.441Z,5.87
2019-06-26T06:57:10.144Z,5.90
2019-06-26T06:59:41.484Z,6.08
2019-06-26T07:02:11.883Z,5.47
2019-06-26T07:04:42.069Z,6.28
2019-06-26T07:07:12.504Z,6.42
2019-06-26T07:09:44.210Z,5.90
2019-06-26T07:12:14.459Z,5.97
2019-06-26T07:14:44.800Z,6.28
2019-06-26T07:17:21.017Z,6.70
2019-06-26T07:19:47.714Z,6.47
2019-06-26T07:22:18.011Z,5.90
2019-06-26T07:24:48.580Z,6.33
2019-06-26T07:27:18.781Z,6.17
2019-06-26T07:29:48.928Z,6.58
2019-06-26T07:32:19.354Z,6.85
2019-06-26T07:34:49.941Z,6.47
2019-06-26T07:37:20.154Z,6.62
2019-06-26T07:39:50.640Z,6.50
2019-06-26T07:42:21.361Z,6.03
2019-06-26T07:44:51.966Z,6.08
2019-06-26T07:47:25.168Z,6.15
2019-06-26T07:49:54.851Z,6.37
2019-06-26T07:52:25.097Z,6.15
2019-06-26T07:54:58.853Z,5.85
2019-06-26T07:57:30.795Z,6.28
2019-06-26T08:00:00.887Z,5.90
2019-06-26T08:02:31.146Z,5.65
2019-06-26T08:05:01.691Z,5.67
2019-06-26T08:07:32.075Z,6.42
2019-06-26T08:10:04.414Z,6.20
2019-06-26T08:12:34.448Z,5.83
2019-06-26T08:15:05.203Z,5.95
2019-06-26T08:17:35.773Z,5.55
2019-06-26T08:20:06.556Z,6.60
2019-06-26T08:22:36.827Z,6.00
2019-06-26T08:25:08.898Z,6.22
2019-06-26T08:27:39.147Z,5.87
2019-06-26T08:30:10.068Z,6.10
2019-06-26T08:32:40.692Z,6.17
2019-06-26T08:35:11.382Z,6.40
2019-06-26T08:37:42.219Z,6.97
2019-06-26T08:40:12.346Z,6.90
2019-06-26T08:42:42.526Z,6.78
2019-06-26T08:45:12.757Z,6.33
2019-06-26T08:47:43.049Z,6.83
2019-06-26T08:50:13.878Z,6.35
2019-06-26T08:52:43.961Z,6.78
2019-06-26T08:55:14.340Z,6.50
2019-06-26T08:57:46.001Z,6.22
2019-06-26T09:00:16.850Z,7.55
2019-06-26T09:02:47.330Z,7.03
2019-06-26T09:05:18.173Z,7.22
2019-06-26T09:07:47.716Z,7.55
2019-06-26T09:10:17.399Z,7.70
2019-06-26T09:13:00.286Z,7.65
2019-06-26T09:15:30.946Z,7.83
2019-06-26T09:18:01.001Z,8.08
2019-06-26T09:20:37.627Z,8.45
2019-06-26T09:23:07.945Z,7.47
2019-06-26T09:25:38.209Z,7.87
2019-06-26T09:28:08.375Z,8.20
2019-06-26T09:30:39.093Z,8.58
2019-06-26T09:33:09.502Z,8.00
2019-06-26T09:35:40.224Z,8.70
2019-06-26T09:38:10.654Z,7.70
2019-06-26T09:40:41.372Z,7.95
2019-06-26T09:43:12.306Z,8.28
2019-06-26T09:45:42.615Z,7.85
2019-06-26T09:48:14.595Z,8.03
2019-06-26T09:50:45.111Z,7.92
2019-06-26T09:53:15.497Z,8.00
2019-06-26T09:55:46.094Z,8.00
2019-06-26T09:58:18.978Z,7.90
2019-06-26T10:00:49.221Z,7.92
2019-06-26T10:03:18.850Z,8.05
2019-06-26T10:05:50.738Z,8.15
2019-06-26T10:08:22.211Z,8.58
2019-06-26T10:10:52.880Z,8.20
2019-06-26T10:13:23.476Z,8.23
2019-06-26T10:15:54.085Z,8.10
2019-06-26T10:18:24.322Z,8.73
2019-06-26T10:20:54.880Z,8.13
2019-06-26T10:23:25.119Z,8.10
2019-06-26T10:25:54.992Z,8.08
2019-06-26T10:28:26.069Z,8.25
2019-06-26T10:30:57.955Z,7.92
2019-06-26T10:33:31.477Z,8.00
2019-06-26T10:36:03.983Z,8.10
2019-06-26T10:38:36.191Z,8.50
2019-06-26T10:41:08.566Z,9.05
2019-06-26T10:43:41.146Z,8.88
2019-06-26T10:46:14.120Z,8.25
2019-06-26T10:48:53.968Z,8.95
2019-06-26T10:51:26.657Z,8.95
2019-06-26T10:53:59.396Z,9.38
2019-06-26T10:56:31.560Z,8.73
2019-06-26T10:59:04.308Z,8.60
2019-06-26T11:01:34.444Z,8.48
2019-06-26T11:04:05.209Z,9.18
2019-06-26T11:06:37.263Z,8.75
2019-06-26T11:09:08.635Z,8.58
2019-06-26T11:11:40.298Z,8.70
2019-06-26T11:14:13.139Z,8.33
2019-06-26T11:16:52.210Z,8.10
2019-06-26T11:19:25.567Z,8.00
2019-06-26T11:21:55.304Z,8.13
2019-06-26T11:24:26.837Z,8.98
2019-06-26T11:26:57.227Z,8.45
2019-06-26T11:29:26.747Z,8.20
2019-06-26T11:31:57.135Z,8.95
2019-06-26T11:34:28.607Z,10.10
2019-06-26T11:37:03.930Z,10.03
2019-06-26T11:39:30.781Z,9.25
2019-06-26T11:42:00.995Z,9.00
2019-06-26T11:44:38.486Z,8.60
2019-06-26T11:47:10.582Z,8.80
2019-06-26T11:49:40.777Z,9.10
2019-06-26T11:52:11.198Z,8.90
2019-06-26T11:54:41.428Z,8.20
2019-06-26T11:57:12.233Z,20.55
2019-06-26T11:59:46.403Z,10.05
2019-06-26T12:02:16.812Z,9.03
2019-06-26T12:04:47.697Z,8.88
2019-06-26T12:07:19.005Z,8.03
2019-06-26T12:09:49.321Z,8.35
2019-06-26T12:12:20.421Z,8.43
2019-06-26T12:14:50.072Z,8.63
2019-06-26T12:17:20.483Z,7.72
2019-06-26T12:19:51.020Z,8.13
2019-06-26T12:22:21.762Z,8.38
2019-06-26T12:24:52.007Z,8.10
2019-06-26T12:27:22.165Z,7.85
2019-06-26T12:29:52.244Z,7.80
2019-06-26T12:32:22.940Z,7.42
2019-06-26T12:34:53.730Z,7.15
2019-06-26T12:37:36.975Z,8.13
2019-06-26T12:40:30.926Z,7.40
2019-06-26T12:43:06.741Z,7.78
2019-06-26T12:45:45.875Z,7.42
2019-06-26T12:48:17.742Z,7.28
2019-06-26T12:50:49.801Z,9.18
2019-06-26T12:53:25.625Z,5.35
2019-06-26T12:55:56.279Z,5.17
2019-06-26T12:58:27.756Z,5.12
2019-06-26T13:00:57.990Z,5.70
2019-06-26T13:03:27.600Z,5.87
2019-06-26T13:05:57.782Z,5.60
2019-06-26T13:08:29.278Z,5.83
2019-06-26T13:10:59.527Z,5.58
2019-06-26T13:13:30.859Z,4.92
2019-06-26T13:16:01.424Z,4.78
2019-06-26T13:18:32.073Z,4.75
2019-06-26T13:21:05.058Z,6.15
2019-06-26T13:23:33.572Z,5.40
2019-06-26T13:26:04.722Z,5.35
2019-06-26T13:28:35.226Z,6.35
2019-06-26T13:31:08.470Z,6.45
2019-06-26T13:33:40.731Z,5.92
2019-06-26T13:36:11.241Z,5.50
2019-06-26T13:38:41.487Z,6.58
2019-06-26T13:41:13.071Z,6.08
2019-06-26T13:43:43.424Z,6.12
2019-06-26T13:46:14.377Z,5.97
2019-06-26T13:48:44.718Z,5.83
2019-06-26T13:51:14.966Z,5.87
2019-06-26T13:53:45.218Z,7.25
2019-06-26T13:56:15.671Z,6.75
2019-06-26T13:58:46.526Z,6.03
2019-06-26T14:01:22.903Z,6.17
2019-06-26T14:03:52.026Z,5.40
2019-06-26T14:06:22.310Z,6.72
2019-06-26T14:08:53.944Z,5.97
2019-06-26T14:11:25.326Z,6.05
2019-06-26T14:13:55.954Z,5.97
2019-06-26T14:16:29.698Z,5.80
2019-06-26T14:18:59.927Z,5.85
2019-06-26T14:21:30.662Z,6.03
2019-06-26T14:24:01.405Z,6.30
2019-06-26T14:26:31.624Z,5.83
2019-06-26T14:29:02.901Z,5.90
2019-06-26T14:31:38.746Z,5.92
2019-06-26T14:34:10.816Z,6.08
2019-06-26T14:36:41.522Z,6.15
2019-06-26T14:39:12.497Z,6.37
2019-06-26T14:41:44.724Z,5.50
2019-06-26T14:44:14.806Z,6.08
2019-06-26T14:46:44.563Z,6.17
2019-06-26T14:49:14.568Z,5.60
2019-06-26T14:51:47.652Z,6.15
2019-06-26T14:54:16.907Z,6.10
2019-06-26T14:56:46.584Z,6.15
2019-06-26T14:59:16.596Z,6.28
2019-06-26T15:01:47.631Z,6.37
2019-06-26T15:04:17.347Z,5.87
2019-06-26T15:06:46.856Z,5.40
2019-06-26T15:09:17.473Z,5.50
2019-06-26T15:11:47.082Z,5.60
2019-06-26T15:14:24.770Z,5.85
2019-06-26T15:16:55.065Z,5.70
2019-06-26T15:19:29.227Z,5.60
2019-06-26T15:21:59.644Z,5.53
2019-06-26T15:24:33.976Z,5.58
2019-06-26T15:27:04.112Z,5.65
2019-06-26T15:29:34.449Z,5.80
2019-06-26T15:32:04.997Z,5.47
2019-06-26T15:34:36.057Z,5.55
2019-06-26T15:37:06.501Z,5.87
2019-06-26T15:39:37.919Z,5.75
2019-06-26T15:42:07.602Z,5.10
2019-06-26T15:44:38.618Z,5.00
2019-06-26T15:47:09.142Z,5.58
2019-06-26T15:49:39.346Z,5.22
2019-06-26T15:52:15.189Z,5.53
2019-06-26T15:54:41.241Z,5.25
2019-06-26T15:57:11.574Z,5.60
2019-06-26T15:59:42.437Z,5.22
2019-06-26T16:02:12.519Z,5.35
2019-06-26T16:04:43.090Z,6.50
2019-06-26T16:07:13.261Z,6.10
2019-06-26T16:09:43.783Z,5.67
2019-06-26T16:12:13.946Z,5.65
2019-06-26T16:14:44.491Z,5.40
2019-06-26T16:17:20.522Z,5.67
2019-06-26T16:19:51.246Z,5.35
2019-06-26T16:22:32.586Z,5.10
2019-06-26T16:25:00.634Z,5.00
2019-06-26T16:27:31.155Z,5.60
2019-06-26T16:30:03.534Z,5.30
2019-06-26T16:32:34.032Z,5.05
2019-06-26T16:35:04.554Z,5.50
2019-06-26T16:37:35.217Z,5.42
2019-06-26T16:40:06.183Z,5.25
2019-06-26T16:42:37.489Z,5.00
2019-06-26T16:45:08.165Z,5.47
2019-06-26T16:47:41.600Z,4.83
2019-06-26T16:50:12.618Z,5.50
2019-06-26T16:52:49.191Z,5.22
2019-06-26T16:55:15.412Z,5.75
2019-06-26T16:57:45.544Z,5.62
2019-06-26T17:00:16.604Z,5.28
2019-06-26T17:02:47.024Z,5.70
2019-06-26T17:05:17.688Z,5.55
2019-06-26T17:07:47.942Z,6.17
2019-06-26T17:10:19.033Z,6.87
2019-06-26T17:12:49.643Z,6.30
2019-06-26T17:15:20.533Z,6.37
2019-06-26T17:17:50.761Z,6.00
2019-06-26T17:20:21.453Z,6.78
2019-06-26T17:23:05.217Z,6.47
2019-06-26T17:25:24.148Z,6.60
2019-06-26T17:27:54.915Z,6.53
2019-06-26T17:30:25.331Z,6.47
2019-06-26T17:32:55.839Z,6.67
2019-06-26T17:35:26.118Z,6.58
2019-06-26T17:37:58.295Z,6.62
2019-06-26T17:40:28.383Z,6.62
2019-06-26T17:43:11.705Z,6.58
2019-06-26T17:45:35.572Z,6.35
2019-06-26T17:48:07.046Z,6.35
2019-06-26T17:50:40.843Z,6.62
2019-06-26T17:53:21.407Z,6.58
2019-06-26T17:55:43.844Z,6.12
2019-06-26T17:58:16.161Z,6.33
2019-06-26T18:00:46.293Z,7.10
2019-06-26T18:03:16.645Z,7.37
2019-06-26T18:05:46.869Z,6.35
2019-06-26T18:08:17.402Z,6.83
2019-06-26T18:10:47.595Z,6.60
2019-06-26T18:13:18.008Z,6.90
2019-06-26T18:15:48.843Z,6.80
2019-06-26T18:18:19.099Z,7.90
2019-06-26T18:20:49.576Z,7.30
2019-06-26T18:23:19.732Z,6.35
2019-06-26T18:25:54.329Z,7.17
2019-06-26T18:28:21.750Z,6.80
2019-06-26T18:30:51.831Z,7.70
2019-06-26T18:33:21.865Z,8.48
2019-06-26T18:35:56.955Z,7.75
2019-06-26T18:38:35.208Z,7.17
2019-06-26T18:41:06.637Z,7.40
2019-06-26T18:43:37.119Z,7.35
2019-06-26T18:46:08.195Z,8.13
2019-06-26T18:48:38.655Z,7.85
2019-06-26T18:51:08.928Z,7.62
2019-06-26T18:53:52.716Z,7.03
2019-06-26T18:56:12.358Z,8.13
2019-06-26T18:58:44.544Z,8.53
2019-06-26T19:01:15.503Z,8.73
2019-06-26T19:03:45.931Z,8.63
2019-06-26T19:06:16.921Z,8.60
2019-06-26T19:08:47.822Z,7.95
2019-06-26T19:11:18.044Z,8.78
2019-06-26T19:13:48.430Z,8.00
2019-06-26T19:16:18.577Z,8.13
2019-06-26T19:18:49.011Z,8.20
2019-06-26T19:21:21.422Z,8.38
2019-06-26T19:23:51.602Z,8.30
2019-06-26T19:26:23.867Z,8.90
2019-06-26T19:28:54.015Z,8.08
2019-06-26T19:31:24.279Z,8.58
2019-06-26T19:33:54.375Z,8.70
2019-06-26T19:36:28.413Z,9.00
2019-06-26T19:38:56.792Z,8.63
2019-06-26T19:41:27.458Z,8.28
2019-06-26T19:43:57.714Z,8.00
2019-06-26T19:46:28.359Z,8.05
2019-06-26T19:48:58.723Z,8.25
2019-06-26T19:51:29.157Z,8.30
2019-06-26T19:54:01.572Z,7.95
2019-06-26T19:56:32.208Z,8.23
2019-06-26T19:59:02.362Z,8.33
2019-06-26T20:01:32.767Z,8.30
2019-06-26T20:04:03.153Z,8.15
2019-06-26T20:06:33.753Z,8.28
2019-06-26T20:09:05.250Z,7.65
2019-06-26T20:11:36.269Z,7.97
2019-06-26T20:14:06.459Z,8.18
2019-06-26T20:16:36.874Z,8.18
2019-06-26T20:19:10.690Z,7.83
2019-06-26T20:21:42.169Z,9.05
2019-06-26T20:24:12.251Z,8.03
2019-06-26T20:26:42.402Z,7.83
2019-06-26T20:29:12.684Z,7.87
2019-06-26T20:31:42.852Z,8.55
2019-06-26T20:34:13.031Z,8.08
2019-06-26T20:36:43.480Z,8.58
2019-06-26T20:39:13.660Z,8.50
2019-06-26T20:41:44.555Z,7.70
2019-06-26T20:44:14.810Z,8.58
2019-06-26T20:46:47.894Z,8.43
2019-06-26T20:49:17.904Z,8.65
2019-06-26T20:51:48.371Z,7.90
2019-06-26T20:54:18.587Z,8.18
2019-06-26T20:56:50.039Z,8.60
2019-06-26T20:59:20.153Z,8.73
2019-06-26T21:01:50.709Z,8.08
2019-06-26T21:04:20.803Z,8.28
2019-06-26T21:06:51.192Z,8.48
2019-06-26T21:09:22.367Z,8.15
2019-06-26T21:11:52.487Z,9.45
2019-06-26T21:14:22.687Z,9.88
2019-06-26T21:16:53.202Z,9.10
2019-06-26T21:19:23.609Z,8.68
2019-06-26T21:21:54.912Z,8.48
2019-06-26T21:24:25.493Z,9.73
2019-06-26T21:26:55.913Z,8.30
2019-06-26T21:29:27.780Z,8.40
2019-06-26T21:31:59.567Z,8.90
2019-06-26T21:34:29.763Z,9.38
2019-06-26T21:37:00.900Z,9.18
2019-06-26T21:39:31.376Z,8.80
2019-06-26T21:42:01.470Z,9.08
2019-06-26T21:44:31.940Z,9.60
2019-06-26T21:47:02.118Z,9.15
2019-06-26T21:49:32.196Z,9.23
2019-06-26T21:52:03.800Z,8.40
2019-06-26T21:54:33.954Z,9.73
2019-06-26T21:57:21.820Z,9.28
2019-06-26T22:00:10.575Z,10.00
2019-06-26T22:02:58.303Z,9.83
2019-06-26T22:05:29.383Z,9.55
2019-06-26T22:08:01.803Z,9.65
2019-06-26T22:10:33.671Z,9.38
2019-06-26T22:13:04.621Z,9.18
2019-06-26T22:15:34.933Z,9.38
2019-06-26T22:18:05.172Z,9.93
2019-06-26T22:20:35.502Z,9.60
2019-06-26T22:23:06.158Z,9.95
2019-06-26T22:25:50.198Z,9.93
2019-06-26T22:28:09.768Z,10.28
2019-06-26T22:30:39.959Z,9.85
2019-06-26T22:33:13.439Z,9.45
2019-06-26T22:35:43.951Z,10.05
2019-06-26T22:38:15.178Z,10.05
2019-06-26T22:40:45.408Z,9.65
2019-06-26T22:43:15.759Z,10.03
2019-06-26T22:45:45.879Z,9.63
2019-06-26T22:48:16.084Z,10.40
2019-06-26T22:50:46.346Z,9.93
2019-06-26T22:53:16.534Z,9.03
2019-06-26T22:55:46.660Z,9.70
2019-06-26T22:58:16.852Z,9.53
2019-06-26T23:00:47.926Z,9.58
2019-06-26T23:03:19.490Z,9.20
2019-06-26T23:05:49.607Z,9.20
2019-06-26T23:08:21.623Z,10.00
2019-06-26T23:10:52.223Z,10.00
2019-06-26T23:13:27.542Z,9.13
2019-06-26T23:15:58.144Z,9.20
2019-06-26T23:18:28.304Z,9.68
2019-06-26T23:20:58.972Z,8.83
2019-06-26T23:23:29.373Z,9.40
2019-06-26T23:26:00.181Z,9.13
2019-06-26T23:28:31.459Z,8.60
2019-06-26T23:31:03.132Z,8.98
2019-06-26T23:33:33.521Z,9.30
2019-06-26T23:36:04.130Z,9.75
2019-06-26T23:38:34.627Z,8.70
2019-06-26T23:41:05.037Z,9.25
2019-06-26T23:43:35.142Z,9.15
2019-06-26T23:46:05.209Z,10.20
2019-06-26T23:48:35.258Z,10.72
2019-06-26T23:51:08.039Z,11.40
2019-06-26T23:53:38.951Z,12.23
2019-06-26T23:56:09.113Z,12.82
2019-06-26T23:58:40.770Z,13.83
